FDX1700 KIND-KEWR
Flight info
| Callsign | FDX1700 |
|---|---|
| Flight time | 1h 13m |
| Altitude | 33000 |
| Route | MAREO5 BDOCK DJB DORET J584 SLT FQM3 |
| Aircraft | B77L/H-SDE1E2E3FGHIJ2J3J4J5M1RWXY/LB1D1 |
Departure
| Time | 2026-05-07 02:52 |
|---|---|
| Airport | Indianapolis International Airport (KIND) |
Arrival
| Time | 2026-05-07 04:05 |
|---|---|
| Airport | Newark Liberty International Airport (KEWR) |
| Time | Latitude | Longitude | Altitude | Speed | Heading |
|---|---|---|---|---|---|
| 2026-05-07 02:25 | 39.71283 | -86.28489 | 790 ft | 0 kts | 314° |
| 2026-05-07 02:39 | 39.71280 | -86.28485 | 790 ft | 2 kts | 314° |
| 2026-05-07 02:39 | 39.71267 | -86.28468 | 790 ft | 3 kts | 315° |
| 2026-05-07 02:39 | 39.71256 | -86.28454 | 790 ft | 3 kts | 320° |
| 2026-05-07 02:39 | 39.71240 | -86.28442 | 790 ft | 3 kts | 0° |
| 2026-05-07 02:40 | 39.71224 | -86.28448 | 791 ft | 3 kts | 43° |
| 2026-05-07 02:40 | 39.71211 | -86.28465 | 791 ft | 2 kts | 45° |
| 2026-05-07 02:40 | 39.71206 | -86.28472 | 791 ft | 1 kts | 45° |
| 2026-05-07 02:43 | 39.71210 | -86.28467 | 791 ft | 2 kts | 45° |
| 2026-05-07 02:44 | 39.71225 | -86.28447 | 791 ft | 4 kts | 45° |
| 2026-05-07 02:44 | 39.71253 | -86.28412 | 790 ft | 7 kts | 44° |
| 2026-05-07 02:44 | 39.71290 | -86.28364 | 789 ft | 8 kts | 44° |
| 2026-05-07 02:44 | 39.71335 | -86.28307 | 788 ft | 9 kts | 44° |
| 2026-05-07 02:45 | 39.71390 | -86.28273 | 788 ft | 9 kts | 354° |
| 2026-05-07 02:45 | 39.71446 | -86.28322 | 788 ft | 10 kts | 316° |
| 2026-05-07 02:45 | 39.71510 | -86.28347 | 787 ft | 10 kts | 19° |
| 2026-05-07 02:45 | 39.71565 | -86.28279 | 786 ft | 12 kts | 50° |
| 2026-05-07 02:46 | 39.71610 | -86.28182 | 787 ft | 12 kts | 67° |
| 2026-05-07 02:46 | 39.71648 | -86.28081 | 789 ft | 12 kts | 55° |
| 2026-05-07 02:46 | 39.71707 | -86.27999 | 789 ft | 12 kts | 44° |
| 2026-05-07 02:46 | 39.71768 | -86.27921 | 790 ft | 12 kts | 44° |
| 2026-05-07 02:47 | 39.71830 | -86.27843 | 792 ft | 11 kts | 44° |
| 2026-05-07 02:47 | 39.71874 | -86.27839 | 792 ft | 7 kts | 329° |
| 2026-05-07 02:47 | 39.71885 | -86.27852 | 792 ft | 0 kts | 315° |
| 2026-05-07 02:49 | 39.71886 | -86.27853 | 792 ft | 1 kts | 315° |
| 2026-05-07 02:49 | 39.71917 | -86.27892 | 791 ft | 11 kts | 315° |
| 2026-05-07 02:50 | 39.71959 | -86.27966 | 789 ft | 4 kts | 273° |
| 2026-05-07 02:50 | 39.71943 | -86.27997 | 789 ft | 4 kts | 227° |
| 2026-05-07 02:50 | 39.71939 | -86.28003 | 789 ft | 0 kts | 225° |
| 2026-05-07 02:51 | 39.71911 | -86.28039 | 789 ft | 29 kts | 224° |
| 2026-05-07 02:51 | 39.71565 | -86.28478 | 785 ft | 106 kts | 224° |
| 2026-05-07 02:51 | 39.70884 | -86.29348 | 785 ft | 165 kts | 224° |
| 2026-05-07 02:51 | 39.70017 | -86.30442 | 1157 ft | 177 kts | 226° |
| 2026-05-07 02:52 | 39.69136 | -86.31585 | 1800 ft | 181 kts | 229° |
| 2026-05-07 02:52 | 39.68259 | -86.32792 | 2467 ft | 184 kts | 231° |
| 2026-05-07 02:52 | 39.67386 | -86.34064 | 2982 ft | 197 kts | 233° |
| 2026-05-07 02:52 | 39.66458 | -86.35495 | 3262 ft | 223 kts | 233° |
| 2026-05-07 02:53 | 39.65439 | -86.37126 | 3577 ft | 240 kts | 227° |
| 2026-05-07 02:53 | 39.63946 | -86.38203 | 4228 ft | 255 kts | 195° |
| 2026-05-07 02:53 | 39.62160 | -86.38169 | 4983 ft | 265 kts | 166° |
| 2026-05-07 02:53 | 39.60516 | -86.37003 | 5661 ft | 277 kts | 137° |
| 2026-05-07 02:54 | 39.59436 | -86.34930 | 6504 ft | 282 kts | 109° |
| 2026-05-07 02:54 | 39.59199 | -86.32436 | 7256 ft | 287 kts | 81° |
| 2026-05-07 02:54 | 39.59738 | -86.29921 | 7854 ft | 293 kts | 69° |
| 2026-05-07 02:54 | 39.60437 | -86.27393 | 8546 ft | 301 kts | 68° |
| 2026-05-07 02:55 | 39.61168 | -86.24807 | 9309 ft | 308 kts | 67° |
| 2026-05-07 02:55 | 39.61908 | -86.22205 | 10041 ft | 315 kts | 67° |
| 2026-05-07 02:55 | 39.62680 | -86.19478 | 10537 ft | 331 kts | 67° |
| 2026-05-07 02:55 | 39.63505 | -86.16553 | 10729 ft | 359 kts | 68° |
| 2026-05-07 02:56 | 39.64390 | -86.13393 | 10914 ft | 386 kts | 68° |
| 2026-05-07 02:56 | 39.65309 | -86.10073 | 11418 ft | 402 kts | 68° |
| 2026-05-07 02:56 | 39.66268 | -86.06584 | 12080 ft | 415 kts | 68° |
| 2026-05-07 02:56 | 39.67247 | -86.03005 | 12902 ft | 425 kts | 68° |
| 2026-05-07 02:57 | 39.68248 | -85.99338 | 13710 ft | 435 kts | 68° |
| 2026-05-07 02:57 | 39.69269 | -85.95574 | 14403 ft | 446 kts | 68° |
| 2026-05-07 02:57 | 39.70301 | -85.91793 | 15127 ft | 454 kts | 68° |
| 2026-05-07 02:57 | 39.71364 | -85.87893 | 15905 ft | 461 kts | 69° |
| 2026-05-07 02:58 | 39.72443 | -85.83923 | 16661 ft | 470 kts | 69° |
| 2026-05-07 02:58 | 39.73536 | -85.79885 | 17404 ft | 477 kts | 69° |
| 2026-05-07 02:58 | 39.74647 | -85.75775 | 18187 ft | 484 kts | 69° |
| 2026-05-07 02:58 | 39.75756 | -85.71662 | 18812 ft | 492 kts | 70° |
| 2026-05-07 02:59 | 39.76899 | -85.67420 | 19401 ft | 500 kts | 70° |
| 2026-05-07 02:59 | 39.78059 | -85.63112 | 20019 ft | 508 kts | 70° |
| 2026-05-07 02:59 | 39.79233 | -85.58744 | 20619 ft | 515 kts | 70° |
| 2026-05-07 02:59 | 39.80409 | -85.54361 | 21211 ft | 523 kts | 70° |
| 2026-05-07 03:00 | 39.81617 | -85.49852 | 21806 ft | 530 kts | 70° |
| 2026-05-07 03:00 | 39.82840 | -85.45278 | 22406 ft | 537 kts | 70° |
| 2026-05-07 03:00 | 39.84074 | -85.40653 | 22989 ft | 545 kts | 70° |
| 2026-05-07 03:00 | 39.85328 | -85.35947 | 23555 ft | 552 kts | 70° |
| 2026-05-07 03:01 | 39.86574 | -85.31257 | 24029 ft | 559 kts | 70° |
| 2026-05-07 03:01 | 39.87680 | -85.26365 | 24498 ft | 566 kts | 76° |
| 2026-05-07 03:01 | 39.88483 | -85.21309 | 24993 ft | 571 kts | 82° |
| 2026-05-07 03:01 | 39.88916 | -85.16141 | 25470 ft | 575 kts | 89° |
| 2026-05-07 03:02 | 39.89165 | -85.10911 | 25937 ft | 581 kts | 90° |
| 2026-05-07 03:02 | 39.89395 | -85.05625 | 26391 ft | 588 kts | 90° |
| 2026-05-07 03:02 | 39.89633 | -85.00336 | 26826 ft | 594 kts | 90° |
| 2026-05-07 03:02 | 39.89893 | -84.94935 | 27261 ft | 601 kts | 89° |
| 2026-05-07 03:03 | 39.90173 | -84.89467 | 27721 ft | 607 kts | 89° |
| 2026-05-07 03:03 | 39.90465 | -84.83962 | 28178 ft | 612 kts | 89° |
| 2026-05-07 03:03 | 39.90763 | -84.78395 | 28624 ft | 618 kts | 89° |
| 2026-05-07 03:03 | 39.91060 | -84.72776 | 29110 ft | 623 kts | 89° |
| 2026-05-07 03:04 | 39.91373 | -84.67200 | 29620 ft | 626 kts | 86° |
| 2026-05-07 03:04 | 39.92148 | -84.61584 | 30051 ft | 632 kts | 74° |
| 2026-05-07 03:04 | 39.93606 | -84.56176 | 30558 ft | 630 kts | 63° |
| 2026-05-07 03:04 | 39.95551 | -84.51088 | 31172 ft | 623 kts | 54° |
| 2026-05-07 03:05 | 39.97896 | -84.46386 | 31758 ft | 611 kts | 44° |
| 2026-05-07 03:05 | 40.00562 | -84.42204 | 32236 ft | 606 kts | 40° |
| 2026-05-07 03:05 | 40.03314 | -84.38027 | 32694 ft | 607 kts | 40° |
| 2026-05-07 03:05 | 40.06072 | -84.33844 | 33095 ft | 609 kts | 40° |
| 2026-05-07 03:06 | 40.11677 | -84.25472 | 33059 ft | 608 kts | 40° |
| 2026-05-07 03:06 | 40.17083 | -84.17076 | 33031 ft | 607 kts | 41° |
| 2026-05-07 03:07 | 40.22433 | -84.08475 | 33042 ft | 608 kts | 42° |
| 2026-05-07 03:07 | 40.27759 | -83.99840 | 33041 ft | 609 kts | 42° |
| 2026-05-07 03:08 | 40.33070 | -83.91247 | 33126 ft | 610 kts | 42° |
| 2026-05-07 03:08 | 40.38437 | -83.82568 | 33049 ft | 612 kts | 42° |
| 2026-05-07 03:09 | 40.43803 | -83.73863 | 33049 ft | 613 kts | 42° |
| 2026-05-07 03:09 | 40.49173 | -83.65135 | 33056 ft | 626 kts | 43° |
| 2026-05-07 03:10 | 40.54718 | -83.56097 | 33049 ft | 641 kts | 43° |
| 2026-05-07 03:10 | 40.60339 | -83.46878 | 33031 ft | 647 kts | 43° |
| 2026-05-07 03:11 | 40.65950 | -83.37647 | 33035 ft | 650 kts | 43° |
| 2026-05-07 03:11 | 40.71608 | -83.28311 | 33085 ft | 651 kts | 44° |
| 2026-05-07 03:12 | 40.77163 | -83.18901 | 33039 ft | 655 kts | 45° |
| 2026-05-07 03:12 | 40.82727 | -83.09345 | 33010 ft | 654 kts | 45° |
| 2026-05-07 03:13 | 40.88283 | -82.99813 | 33014 ft | 653 kts | 44° |
| 2026-05-07 03:13 | 40.93795 | -82.90365 | 33068 ft | 652 kts | 44° |
| 2026-05-07 03:14 | 40.99346 | -82.80827 | 33019 ft | 653 kts | 45° |
| 2026-05-07 03:15 | 41.07599 | -82.66568 | 33016 ft | 651 kts | 45° |
| 2026-05-07 03:15 | 41.13084 | -82.56975 | 33084 ft | 655 kts | 47° |
| 2026-05-07 03:16 | 41.17856 | -82.46539 | 33044 ft | 664 kts | 57° |
| 2026-05-07 03:16 | 41.22084 | -82.35687 | 33003 ft | 665 kts | 58° |
| 2026-05-07 03:17 | 41.26385 | -82.24797 | 33029 ft | 664 kts | 57° |
| 2026-05-07 03:17 | 41.30759 | -82.13961 | 33063 ft | 664 kts | 57° |
| 2026-05-07 03:18 | 41.35020 | -82.03102 | 33025 ft | 667 kts | 61° |
| 2026-05-07 03:18 | 41.38721 | -81.91739 | 33016 ft | 668 kts | 64° |
| 2026-05-07 03:19 | 41.42255 | -81.80367 | 33010 ft | 668 kts | 64° |
| 2026-05-07 03:19 | 41.45839 | -81.68937 | 33012 ft | 667 kts | 64° |
| 2026-05-07 03:20 | 41.49458 | -81.57528 | 33045 ft | 666 kts | 64° |
| 2026-05-07 03:20 | 41.53036 | -81.46226 | 33010 ft | 662 kts | 64° |
| 2026-05-07 03:21 | 41.56601 | -81.34889 | 33034 ft | 659 kts | 64° |
| 2026-05-07 03:21 | 41.60137 | -81.23581 | 33009 ft | 658 kts | 64° |
| 2026-05-07 03:22 | 41.63636 | -81.12343 | 33036 ft | 659 kts | 64° |
| 2026-05-07 03:22 | 41.67146 | -81.00981 | 33045 ft | 659 kts | 65° |
| 2026-05-07 03:23 | 41.70631 | -80.89717 | 33009 ft | 658 kts | 64° |
| 2026-05-07 03:23 | 41.74129 | -80.78374 | 33014 ft | 658 kts | 65° |
| 2026-05-07 03:24 | 41.77483 | -80.66951 | 33006 ft | 659 kts | 71° |
| 2026-05-07 03:24 | 41.79141 | -80.54964 | 33025 ft | 658 kts | 88° |
| 2026-05-07 03:25 | 41.78884 | -80.42798 | 33020 ft | 647 kts | 104° |
| 2026-05-07 03:25 | 41.77503 | -80.30849 | 33018 ft | 650 kts | 105° |
| 2026-05-07 03:26 | 41.76149 | -80.18829 | 33016 ft | 653 kts | 104° |
| 2026-05-07 03:26 | 41.74904 | -80.06816 | 33002 ft | 656 kts | 103° |
| 2026-05-07 03:27 | 41.73671 | -79.94685 | 33015 ft | 657 kts | 104° |
| 2026-05-07 03:27 | 41.72416 | -79.82619 | 33023 ft | 657 kts | 104° |
| 2026-05-07 03:28 | 41.71130 | -79.70520 | 33025 ft | 655 kts | 104° |
| 2026-05-07 03:28 | 41.69830 | -79.58430 | 33026 ft | 655 kts | 104° |
| 2026-05-07 03:29 | 41.68521 | -79.46350 | 33016 ft | 655 kts | 104° |
| 2026-05-07 03:29 | 41.67209 | -79.34357 | 33013 ft | 654 kts | 104° |
| 2026-05-07 03:30 | 41.65881 | -79.22317 | 32998 ft | 654 kts | 104° |
| 2026-05-07 03:30 | 41.64538 | -79.10268 | 32990 ft | 654 kts | 104° |
| 2026-05-07 03:31 | 41.63195 | -78.98320 | 32982 ft | 652 kts | 104° |
| 2026-05-07 03:31 | 41.61834 | -78.86311 | 32989 ft | 652 kts | 104° |
| 2026-05-07 03:32 | 41.60462 | -78.74319 | 32969 ft | 652 kts | 104° |
| 2026-05-07 03:32 | 41.59088 | -78.62419 | 32958 ft | 651 kts | 104° |
| 2026-05-07 03:33 | 41.57691 | -78.50448 | 32975 ft | 651 kts | 104° |
| 2026-05-07 03:33 | 41.56283 | -78.38480 | 32974 ft | 650 kts | 104° |
| 2026-05-07 03:34 | 41.54877 | -78.26627 | 32975 ft | 646 kts | 105° |
| 2026-05-07 03:34 | 41.53473 | -78.14884 | 32983 ft | 634 kts | 105° |
| 2026-05-07 03:35 | 41.52070 | -78.03330 | 32990 ft | 634 kts | 105° |
| 2026-05-07 03:35 | 41.50622 | -77.91700 | 32938 ft | 633 kts | 106° |
| 2026-05-07 03:36 | 41.48998 | -77.80239 | 32965 ft | 631 kts | 107° |
| 2026-05-07 03:36 | 41.47309 | -77.68764 | 32791 ft | 624 kts | 107° |
| 2026-05-07 03:36 | 41.46496 | -77.63175 | 32266 ft | 618 kts | 107° |
| 2026-05-07 03:37 | 41.45687 | -77.57570 | 31690 ft | 613 kts | 107° |
| 2026-05-07 03:37 | 41.44887 | -77.52006 | 31109 ft | 608 kts | 107° |
| 2026-05-07 03:37 | 41.44095 | -77.46511 | 30595 ft | 602 kts | 107° |
| 2026-05-07 03:37 | 41.43305 | -77.41051 | 30138 ft | 596 kts | 108° |
| 2026-05-07 03:38 | 41.42517 | -77.35639 | 29591 ft | 589 kts | 108° |
| 2026-05-07 03:38 | 41.41739 | -77.30315 | 29053 ft | 583 kts | 108° |
| 2026-05-07 03:38 | 41.40965 | -77.25038 | 28538 ft | 576 kts | 108° |
| 2026-05-07 03:38 | 41.40205 | -77.19881 | 27946 ft | 570 kts | 108° |
| 2026-05-07 03:39 | 41.39440 | -77.14717 | 27427 ft | 565 kts | 108° |
| 2026-05-07 03:39 | 41.38681 | -77.09610 | 26926 ft | 559 kts | 108° |
| 2026-05-07 03:39 | 41.37936 | -77.04602 | 26433 ft | 554 kts | 108° |
| 2026-05-07 03:39 | 41.37188 | -76.99598 | 25951 ft | 548 kts | 108° |
| 2026-05-07 03:40 | 41.36442 | -76.94629 | 25471 ft | 543 kts | 108° |
| 2026-05-07 03:40 | 41.35705 | -76.89720 | 24989 ft | 539 kts | 109° |
| 2026-05-07 03:40 | 41.34980 | -76.84905 | 24526 ft | 534 kts | 108° |
| 2026-05-07 03:40 | 41.34252 | -76.80076 | 24102 ft | 528 kts | 108° |
| 2026-05-07 03:41 | 41.33464 | -76.75341 | 23687 ft | 518 kts | 113° |
| 2026-05-07 03:41 | 41.32395 | -76.70789 | 23081 ft | 510 kts | 118° |
| 2026-05-07 03:41 | 41.31167 | -76.66411 | 22357 ft | 511 kts | 120° |
| 2026-05-07 03:41 | 41.29866 | -76.62011 | 21804 ft | 510 kts | 120° |
| 2026-05-07 03:42 | 41.28579 | -76.57613 | 21223 ft | 510 kts | 119° |
| 2026-05-07 03:42 | 41.27308 | -76.53201 | 20683 ft | 510 kts | 117° |
| 2026-05-07 03:42 | 41.26111 | -76.48763 | 20188 ft | 507 kts | 116° |
| 2026-05-07 03:42 | 41.24961 | -76.44381 | 19898 ft | 500 kts | 116° |
| 2026-05-07 03:43 | 41.23833 | -76.40100 | 19590 ft | 493 kts | 116° |
| 2026-05-07 03:43 | 41.22693 | -76.35832 | 19230 ft | 488 kts | 116° |
| 2026-05-07 03:43 | 41.21550 | -76.31608 | 18835 ft | 484 kts | 116° |
| 2026-05-07 03:43 | 41.20410 | -76.27415 | 18443 ft | 480 kts | 116° |
| 2026-05-07 03:44 | 41.19280 | -76.23261 | 18061 ft | 475 kts | 116° |
| 2026-05-07 03:44 | 41.18177 | -76.19203 | 17656 ft | 471 kts | 116° |
| 2026-05-07 03:44 | 41.17067 | -76.15131 | 17201 ft | 468 kts | 116° |
| 2026-05-07 03:44 | 41.15958 | -76.11067 | 16796 ft | 464 kts | 116° |
| 2026-05-07 03:45 | 41.14864 | -76.07062 | 16433 ft | 459 kts | 116° |
| 2026-05-07 03:45 | 41.13771 | -76.03074 | 15997 ft | 457 kts | 116° |
| 2026-05-07 03:45 | 41.12698 | -75.99166 | 15535 ft | 455 kts | 116° |
| 2026-05-07 03:45 | 41.11617 | -75.95236 | 15166 ft | 452 kts | 116° |
| 2026-05-07 03:46 | 41.10540 | -75.91325 | 14768 ft | 448 kts | 116° |
| 2026-05-07 03:46 | 41.09471 | -75.87443 | 14401 ft | 445 kts | 116° |
| 2026-05-07 03:46 | 41.08422 | -75.83641 | 14021 ft | 443 kts | 116° |
| 2026-05-07 03:46 | 41.07361 | -75.79807 | 13596 ft | 441 kts | 117° |
| 2026-05-07 03:47 | 41.06304 | -75.75993 | 13192 ft | 439 kts | 116° |
| 2026-05-07 03:47 | 41.05253 | -75.72207 | 13051 ft | 436 kts | 116° |
| 2026-05-07 03:47 | 41.04207 | -75.68438 | 13059 ft | 436 kts | 116° |
| 2026-05-07 03:47 | 41.03168 | -75.64701 | 13053 ft | 437 kts | 116° |
| 2026-05-07 03:48 | 41.02112 | -75.60912 | 13037 ft | 438 kts | 116° |
| 2026-05-07 03:48 | 41.01057 | -75.57129 | 13028 ft | 437 kts | 116° |
| 2026-05-07 03:48 | 40.99999 | -75.53342 | 13036 ft | 437 kts | 116° |
| 2026-05-07 03:48 | 40.98957 | -75.49619 | 13027 ft | 436 kts | 116° |
| 2026-05-07 03:49 | 40.97901 | -75.45849 | 13033 ft | 436 kts | 116° |
| 2026-05-07 03:49 | 40.96845 | -75.42084 | 13010 ft | 436 kts | 116° |
| 2026-05-07 03:49 | 40.95788 | -75.38318 | 13023 ft | 435 kts | 116° |
| 2026-05-07 03:49 | 40.94745 | -75.34606 | 13025 ft | 435 kts | 116° |
| 2026-05-07 03:50 | 40.93685 | -75.30842 | 13027 ft | 435 kts | 116° |
| 2026-05-07 03:50 | 40.92637 | -75.27116 | 13030 ft | 432 kts | 116° |
| 2026-05-07 03:50 | 40.91582 | -75.23380 | 13035 ft | 432 kts | 116° |
| 2026-05-07 03:50 | 40.90528 | -75.19656 | 13030 ft | 433 kts | 116° |
| 2026-05-07 03:51 | 40.89486 | -75.15975 | 13034 ft | 433 kts | 116° |
| 2026-05-07 03:51 | 40.88429 | -75.12248 | 13032 ft | 432 kts | 116° |
| 2026-05-07 03:51 | 40.87379 | -75.08540 | 12769 ft | 429 kts | 117° |
| 2026-05-07 03:51 | 40.86353 | -75.04891 | 12660 ft | 415 kts | 117° |
| 2026-05-07 03:52 | 40.85377 | -75.01421 | 12566 ft | 401 kts | 117° |
| 2026-05-07 03:52 | 40.84421 | -74.98028 | 12464 ft | 387 kts | 117° |
| 2026-05-07 03:52 | 40.83496 | -74.94754 | 12374 ft | 373 kts | 117° |
| 2026-05-07 03:52 | 40.82602 | -74.91595 | 12281 ft | 360 kts | 118° |
| 2026-05-07 03:53 | 40.81717 | -74.88576 | 12148 ft | 339 kts | 125° |
| 2026-05-07 03:53 | 40.80413 | -74.86209 | 11839 ft | 311 kts | 144° |
| 2026-05-07 03:53 | 40.78922 | -74.84151 | 11510 ft | 308 kts | 144° |
| 2026-05-07 03:53 | 40.77466 | -74.82097 | 11160 ft | 305 kts | 144° |
| 2026-05-07 03:54 | 40.76026 | -74.80042 | 10785 ft | 304 kts | 143° |
| 2026-05-07 03:54 | 40.74603 | -74.77992 | 10449 ft | 301 kts | 143° |
| 2026-05-07 03:54 | 40.73213 | -74.75979 | 10090 ft | 299 kts | 143° |
| 2026-05-07 03:54 | 40.71810 | -74.73946 | 9714 ft | 298 kts | 143° |
| 2026-05-07 03:55 | 40.70889 | -74.72609 | 9436 ft | 297 kts | 143° |
| 2026-05-07 03:55 | 40.69503 | -74.70588 | 9027 ft | 296 kts | 142° |
| 2026-05-07 03:55 | 40.68123 | -74.68580 | 8652 ft | 294 kts | 142° |
| 2026-05-07 03:55 | 40.66310 | -74.65940 | 8146 ft | 292 kts | 142° |
| 2026-05-07 03:56 | 40.64950 | -74.63963 | 7788 ft | 290 kts | 142° |
| 2026-05-07 03:56 | 40.64051 | -74.62654 | 7553 ft | 289 kts | 142° |
| 2026-05-07 03:56 | 40.62713 | -74.60708 | 7109 ft | 283 kts | 142° |
| 2026-05-07 03:56 | 40.61389 | -74.58781 | 6462 ft | 284 kts | 141° |
| 2026-05-07 03:57 | 40.60063 | -74.56856 | 5834 ft | 284 kts | 141° |
| 2026-05-07 03:57 | 40.58738 | -74.54930 | 5225 ft | 282 kts | 139° |
| 2026-05-07 03:57 | 40.57415 | -74.53012 | 4822 ft | 282 kts | 139° |
| 2026-05-07 03:57 | 40.56128 | -74.51143 | 4637 ft | 273 kts | 138° |
| 2026-05-07 03:58 | 40.54889 | -74.49338 | 4536 ft | 259 kts | 138° |
| 2026-05-07 03:58 | 40.53702 | -74.47613 | 4371 ft | 247 kts | 138° |
| 2026-05-07 03:58 | 40.52556 | -74.45956 | 4114 ft | 242 kts | 138° |
| 2026-05-07 03:58 | 40.51427 | -74.44327 | 3761 ft | 240 kts | 137° |
| 2026-05-07 03:59 | 40.50323 | -74.42732 | 3462 ft | 236 kts | 135° |
| 2026-05-07 03:59 | 40.49512 | -74.40874 | 3058 ft | 236 kts | 106° |
| 2026-05-07 03:59 | 40.49118 | -74.38762 | 3035 ft | 238 kts | 109° |
| 2026-05-07 03:59 | 40.48822 | -74.36676 | 2981 ft | 230 kts | 80° |
| 2026-05-07 04:00 | 40.49389 | -74.34796 | 3040 ft | 224 kts | 60° |
| 2026-05-07 04:00 | 40.50022 | -74.32864 | 3012 ft | 232 kts | 66° |
| 2026-05-07 04:00 | 40.50612 | -74.30891 | 3012 ft | 231 kts | 66° |
| 2026-05-07 04:00 | 40.51221 | -74.28947 | 3004 ft | 227 kts | 59° |
| 2026-05-07 04:01 | 40.52230 | -74.27504 | 3013 ft | 212 kts | 28° |
| 2026-05-07 04:01 | 40.53527 | -74.26509 | 3037 ft | 220 kts | 24° |
| 2026-05-07 04:01 | 40.54910 | -74.25580 | 2821 ft | 226 kts | 21° |
| 2026-05-07 04:01 | 40.56324 | -74.24683 | 2528 ft | 223 kts | 21° |
| 2026-05-07 04:02 | 40.57701 | -74.23812 | 2242 ft | 212 kts | 21° |
| 2026-05-07 04:02 | 40.58943 | -74.23022 | 1998 ft | 191 kts | 21° |
| 2026-05-07 04:02 | 40.60092 | -74.22293 | 1733 ft | 176 kts | 20° |
| 2026-05-07 04:02 | 40.61150 | -74.21623 | 1479 ft | 159 kts | 22° |
| 2026-05-07 04:03 | 40.62097 | -74.21020 | 1303 ft | 144 kts | 20° |
| 2026-05-07 04:03 | 40.62983 | -74.20459 | 1110 ft | 144 kts | 21° |
| 2026-05-07 04:03 | 40.63894 | -74.19881 | 940 ft | 144 kts | 22° |
| 2026-05-07 04:03 | 40.64783 | -74.19296 | 765 ft | 142 kts | 24° |
| 2026-05-07 04:04 | 40.65673 | -74.18728 | 563 ft | 142 kts | 22° |
| 2026-05-07 04:04 | 40.66562 | -74.18168 | 377 ft | 139 kts | 23° |
| 2026-05-07 04:04 | 40.67431 | -74.17622 | 172 ft | 138 kts | 22° |
| 2026-05-07 04:04 | 40.68308 | -74.17073 | 32 ft | 139 kts | 21° |
| 2026-05-07 04:05 | 40.69065 | -74.16594 | 28 ft | 98 kts | 25° |
| 2026-05-07 04:05 | 40.69512 | -74.16311 | 28 ft | 45 kts | 26° |
| 2026-05-07 04:05 | 40.69690 | -74.16196 | 29 ft | 14 kts | 25° |
| 2026-05-07 04:05 | 40.69782 | -74.16182 | 28 ft | 14 kts | 332° |
| 2026-05-07 04:06 | 40.69831 | -74.16290 | 29 ft | 14 kts | 294° |
| 2026-05-07 04:06 | 40.69873 | -74.16405 | 29 ft | 14 kts | 296° |
| 2026-05-07 04:06 | 40.69904 | -74.16526 | 28 ft | 14 kts | 278° |
| 2026-05-07 04:06 | 40.69912 | -74.16654 | 18 ft | 14 kts | 275° |
| 2026-05-07 04:07 | 40.69894 | -74.16761 | 26 ft | 12 kts | 210° |
| 2026-05-07 04:07 | 40.69812 | -74.16783 | 26 ft | 12 kts | 197° |
| 2026-05-07 04:07 | 40.69728 | -74.16833 | 26 ft | 14 kts | 206° |
| 2026-05-07 04:07 | 40.69642 | -74.16888 | 26 ft | 14 kts | 205° |
| 2026-05-07 04:08 | 40.69536 | -74.16956 | 26 ft | 22 kts | 206° |
| 2026-05-07 04:08 | 40.69393 | -74.17047 | 26 ft | 23 kts | 206° |
| 2026-05-07 04:08 | 40.69250 | -74.17139 | 26 ft | 23 kts | 206° |
| 2026-05-07 04:08 | 40.69106 | -74.17230 | 26 ft | 23 kts | 206° |
| 2026-05-07 04:09 | 40.68963 | -74.17320 | 27 ft | 23 kts | 205° |
| 2026-05-07 04:09 | 40.68822 | -74.17410 | 26 ft | 23 kts | 206° |
| 2026-05-07 04:09 | 40.68678 | -74.17501 | 26 ft | 23 kts | 206° |
| 2026-05-07 04:09 | 40.68543 | -74.17587 | 27 ft | 19 kts | 205° |
| 2026-05-07 04:10 | 40.68432 | -74.17657 | 27 ft | 18 kts | 206° |
| 2026-05-07 04:10 | 40.68322 | -74.17728 | 27 ft | 18 kts | 206° |
| 2026-05-07 04:10 | 40.68213 | -74.17797 | 27 ft | 18 kts | 206° |
| 2026-05-07 04:10 | 40.68103 | -74.17868 | 27 ft | 18 kts | 206° |
| 2026-05-07 04:11 | 40.67992 | -74.17938 | 27 ft | 18 kts | 205° |
| 2026-05-07 04:11 | 40.67882 | -74.18008 | 27 ft | 18 kts | 206° |
| 2026-05-07 04:11 | 40.67771 | -74.18078 | 27 ft | 18 kts | 206° |
| 2026-05-07 04:11 | 40.67692 | -74.18158 | 27 ft | 14 kts | 263° |
| 2026-05-07 04:12 | 40.67726 | -74.18263 | 27 ft | 12 kts | 297° |
| 2026-05-07 04:12 | 40.67758 | -74.18358 | 27 ft | 11 kts | 290° |
| 2026-05-07 04:12 | 40.67766 | -74.18430 | 27 ft | 7 kts | 240° |
| 2026-05-07 04:12 | 40.67737 | -74.18453 | 27 ft | 2 kts | 203° |
| 2026-05-07 04:13 | 40.67725 | -74.18460 | 27 ft | 2 kts | 205° |
| 2026-05-07 04:13 | 40.67715 | -74.18465 | 27 ft | 0 kts | 205° |